Time;durP1;ratioP1;P1;durP2;ratioP2;P2;SDS_P1;SDS_P2;PMS_P1;PMS_P2;Temp;Humidity;BMP_temperature;BMP_pressure;BME280_temperature;BME280_humidity;BME280_pressure;Samples;Min_cycle;Max_cycle;Signal;HPM_P1;HPM_P2
2023/12/12 00:01:42;;;;;;;10.40;3.50;;;;;;;6.13;100.00;100037.78;5073613;28;20233;-74
2023/12/12 00:04:11;;;;;;;10.10;3.77;;;;;;;6.12;100.00;100036.13;5073707;28;20232;-75
2023/12/12 00:06:40;;;;;;;8.10;3.20;;;;;;;6.10;100.00;100035.41;5073815;28;20205;-75
2023/12/12 00:09:08;;;;;;;13.77;4.63;;;;;;;6.09;100.00;100037.25;5073694;28;20270;-75
2023/12/12 00:11:38;;;;;;;10.90;4.20;;;;;;;6.07;100.00;100033.06;5073631;28;20209;-75
2023/12/12 00:14:06;;;;;;;6.73;2.70;;;;;;;6.06;100.00;100034.06;5073641;28;20292;-75
2023/12/12 00:16:35;;;;;;;14.83;3.80;;;;;;;6.06;100.00;100031.41;5073651;28;20237;-74
2023/12/12 00:19:04;;;;;;;13.13;5.50;;;;;;;6.04;100.00;100025.41;5073589;28;20205;-75
2023/12/12 00:21:32;;;;;;;11.30;3.53;;;;;;;6.04;100.00;100028.06;5073818;28;20335;-75
2023/12/12 00:24:01;;;;;;;9.53;3.13;;;;;;;6.03;100.00;100029.88;5073762;28;20233;-75
2023/12/12 00:26:29;;;;;;;9.30;3.73;;;;;;;6.04;100.00;100033.38;5073603;28;20248;-74
2023/12/12 00:28:59;;;;;;;11.10;3.53;;;;;;;6.01;100.00;100034.50;5073151;28;20658;-75
2023/12/12 00:31:28;;;;;;;13.13;3.63;;;;;;;6.01;100.00;100037.16;5073393;28;20281;-75
2023/12/12 00:33:56;;;;;;;12.03;3.37;;;;;;;6.02;100.00;100035.34;5073109;28;20290;-75
2023/12/12 00:36:25;;;;;;;6.77;2.37;;;;;;;6.01;100.00;100036.31;5073511;28;20274;-75
2023/12/12 00:38:53;;;;;;;8.63;3.00;;;;;;;6.02;100.00;100035.34;5073498;28;20209;-75
2023/12/12 00:41:31;;;;;;;10.13;3.07;;;;;;;6.02;99.94;100032.69;5073394;28;20294;-75
2023/12/12 00:44:01;;;;;;;9.67;2.53;;;;;;;6.01;99.97;100036.31;5073510;28;20189;-75
2023/12/12 00:46:30;;;;;;;12.90;3.40;;;;;;;5.98;100.00;100041.94;5072997;28;20647;-75
2023/12/12 00:48:58;;;;;;;10.43;3.10;;;;;;;5.97;100.00;100045.56;5073671;28;20205;-75
2023/12/12 00:51:27;;;;;;;9.37;2.87;;;;;;;5.99;100.00;100051.59;5077397;28;20208;-75
2023/12/12 00:53:55;;;;;;;8.63;3.17;;;;;;;5.97;99.92;100051.72;5077220;28;20248;-75
2023/12/12 00:56:24;;;;;;;8.50;2.63;;;;;;;5.94;100.00;100045.88;5076937;28;20688;-75
2023/12/12 00:58:53;;;;;;;8.57;2.87;;;;;;;5.94;100.00;100059.16;5077139;28;20307;-75
2023/12/12 01:01:22;;;;;;;10.80;3.00;;;;;;;5.95;99.73;100058.19;5076671;28;20635;-74
2023/12/12 01:03:51;;;;;;;9.33;2.83;;;;;;;5.94;99.45;100059.16;5077007;28;20222;-75
2023/12/12 01:06:23;;;;;;;8.13;2.60;;;;;;;5.93;100.00;100054.81;5076888;28;20218;-75
2023/12/12 01:08:56;;;;;;;7.77;2.60;;;;;;;5.90;99.84;100061.25;5076652;28;20678;-75
2023/12/12 01:11:25;;;;;;;6.97;2.80;;;;;;;5.92;99.78;100063.78;5076837;28;20197;-75
2023/12/12 01:13:53;;;;;;;11.70;3.00;;;;;;;5.91;99.70;100064.75;5076411;28;20259;-75
2023/12/12 01:16:23;;;;;;;10.90;3.00;;;;;;;5.92;99.66;100055.81;5076704;28;20209;-75
2023/12/12 01:18:54;;;;;;;9.07;2.80;;;;;;;5.93;99.93;100065.44;5076772;28;20194;-74
2023/12/12 01:21:23;;;;;;;8.23;2.70;;;;;;;5.90;99.54;100063.91;5076564;28;20233;-74
2023/12/12 01:23:53;;;;;;;7.43;2.40;;;;;;;5.90;99.72;100073.69;5076541;28;20271;-74
2023/12/12 01:26:23;;;;;;;8.20;2.63;;;;;;;5.90;99.50;100068.38;5076627;28;20279;-74
2023/12/12 01:28:52;;;;;;;8.23;2.77;;;;;;;5.90;100.00;100071.03;5076189;28;20635;-74
2023/12/12 01:31:22;;;;;;;8.30;2.70;;;;;;;5.89;99.77;100080.03;5076511;28;20551;-74
2023/12/12 01:33:53;;;;;;;9.37;2.67;;;;;;;5.88;99.75;100076.53;5075950;28;20259;-74
2023/12/12 01:36:21;;;;;;;6.13;2.40;;;;;;;5.88;100.00;100075.69;5076731;28;20240;-74
2023/12/12 01:38:50;;;;;;;6.23;2.33;;;;;;;5.87;100.00;100076.66;5076314;28;20202;-75
2023/12/12 01:41:18;;;;;;;9.37;2.60;;;;;;;5.86;100.00;100072.31;5075943;28;20275;-74
2023/12/12 01:43:47;;;;;;;8.67;2.67;;;;;;;5.82;99.96;100066.44;5075913;28;20780;-74
2023/12/12 01:46:19;;;;;;;8.00;2.53;;;;;;;5.80;100.00;100065.75;5075927;28;20300;-74
2023/12/12 01:48:49;;;;;;;6.67;2.27;;;;;;;5.77;100.00;100063.38;5076247;28;20641;-74
2023/12/12 01:51:18;;;;;;;7.57;2.23;;;;;;;5.74;100.00;100073.47;5075897;28;20600;-75
2023/12/12 01:53:51;;;;;;;5.33;2.33;;;;;;;5.73;100.00;100072.63;5076182;28;20257;-75
2023/12/12 01:56:20;;;;;;;6.73;2.40;;;;;;;5.73;100.00;100067.31;5075818;28;20651;-75
2023/12/12 01:58:51;;;;;;;7.47;2.40;;;;;;;5.74;100.00;100063.69;5075750;28;20292;-75
2023/12/12 02:01:21;;;;;;;4.80;2.00;;;;;;;5.72;100.00;100064.81;5075636;28;20300;-75
2023/12/12 02:03:53;;;;;;;8.47;2.30;;;;;;;5.71;100.00;100061.31;5075936;28;20221;-75
2023/12/12 02:06:23;;;;;;;9.40;2.83;;;;;;;5.70;100.00;100043.72;5075951;28;20201;-75
2023/12/12 02:08:52;;;;;;;10.43;2.60;;;;;;;5.72;100.00;100048.88;5075935;28;20260;-75
2023/12/12 02:11:21;;;;;;;6.93;2.20;;;;;;;5.69;100.00;100050.00;5075913;28;20247;-75
2023/12/12 02:13:50;;;;;;;9.03;3.07;;;;;;;5.68;99.77;100050.16;5075707;28;20240;-75
2023/12/12 02:16:18;;;;;;;7.77;2.87;;;;;;;5.66;99.85;100038.81;5075785;28;20259;-75
2023/12/12 02:18:47;;;;;;;13.70;3.07;;;;;;;5.65;99.66;100042.47;5075763;28;20210;-75
2023/12/12 02:21:20;;;;;;;6.53;2.53;;;;;;;5.66;99.61;100049.44;5075247;28;20647;-75
2023/12/12 02:23:49;;;;;;;9.77;2.87;;;;;;;5.62;99.75;100052.41;5075618;28;20239;-75
2023/12/12 02:26:18;;;;;;;12.03;3.10;;;;;;;5.62;99.95;100054.22;5075671;28;20308;-75
2023/12/12 02:28:47;;;;;;;6.73;2.70;;;;;;;5.58;99.42;100053.66;5075515;28;20205;-75
2023/12/12 02:31:16;;;;;;;6.00;2.93;;;;;;;5.60;99.82;100058.84;5075499;28;20209;-75
2023/12/12 02:33:45;;;;;;;6.73;2.47;;;;;;;5.57;99.83;100051.16;5075074;28;20234;-75
2023/12/12 02:36:15;;;;;;;8.77;2.73;;;;;;;5.57;99.49;100052.00;5075455;28;20292;-75
2023/12/12 02:38:45;;;;;;;8.77;2.93;;;;;;;5.59;99.52;100055.34;5074899;28;20609;-75
2023/12/12 02:41:14;;;;;;;4.40;2.30;;;;;;;5.55;99.61;100053.97;5075295;28;20320;-75
2023/12/12 02:43:42;;;;;;;7.43;2.80;;;;;;;5.57;99.39;100062.63;5074886;28;20595;-75
2023/12/12 02:46:11;;;;;;;7.23;2.80;;;;;;;5.58;99.83;100052.84;5074882;28;20680;-75
2023/12/12 02:48:40;;;;;;;8.23;2.70;;;;;;;5.57;99.32;100057.31;5075102;28;20239;-75
2023/12/12 02:51:08;;;;;;;8.00;2.23;;;;;;;5.60;99.14;100051.72;5075094;28;20210;-75
2023/12/12 02:53:37;;;;;;;6.47;2.47;;;;;;;5.61;98.85;100053.41;5074934;28;20267;-75
2023/12/12 02:56:07;;;;;;;8.17;2.50;;;;;;;5.59;98.58;100049.19;5074900;28;20305;-75
2023/12/12 02:58:36;;;;;;;7.07;2.57;;;;;;;5.59;98.68;100054.50;5074967;28;20277;-75
2023/12/12 03:01:06;;;;;;;9.23;2.47;;;;;;;5.60;98.36;100046.41;5074737;28;20275;-75
2023/12/12 03:03:35;;;;;;;6.00;2.40;;;;;;;5.60;98.33;100049.06;5074699;28;20287;-75
2023/12/12 03:06:04;;;;;;;6.57;2.17;;;;;;;5.59;98.40;100049.19;5074337;28;20660;-75
2023/12/12 03:08:33;;;;;;;6.07;2.30;;;;;;;5.58;98.78;100048.34;5074598;28;20220;-75
2023/12/12 03:11:01;;;;;;;7.10;2.50;;;;;;;5.59;98.90;100046.53;5074631;28;20229;-75
2023/12/12 03:13:32;;;;;;;7.03;2.50;;;;;;;5.59;99.06;100039.41;5073943;28;20316;-75
2023/12/12 03:16:00;;;;;;;9.63;2.60;;;;;;;5.58;98.82;100042.22;5074179;28;20604;-75
2023/12/12 03:18:29;;;;;;;7.53;2.40;;;;;;;5.56;98.99;100039.72;5074433;28;20212;-75
2023/12/12 03:20:59;;;;;;;7.83;2.20;;;;;;;5.55;99.16;100040.69;5073992;28;20671;-75
2023/12/12 03:23:28;;;;;;;9.80;2.40;;;;;;;5.54;99.21;100039.03;5074493;28;20263;-75
2023/12/12 03:25:56;;;;;;;9.93;2.40;;;;;;;5.55;99.10;100027.41;5074253;28;20215;-75
2023/12/12 03:28:25;;;;;;;6.43;2.37;;;;;;;5.52;99.11;100038.31;5074229;28;20227;-74
2023/12/12 03:30:55;;;;;;;4.43;2.47;;;;;;;5.52;99.32;100022.38;5073915;28;20671;-75
2023/12/12 03:33:25;;;;;;;6.80;2.40;;;;;;;5.48;98.72;100026.31;5073868;28;20233;-75
2023/12/12 03:35:53;;;;;;;6.47;2.40;;;;;;;5.42;98.93;100015.44;5073818;28;20209;-75
2023/12/12 03:38:22;;;;;;;6.17;2.40;;;;;;;5.42;99.18;100016.28;5074010;28;20227;-75
2023/12/12 03:40:53;;;;;;;4.87;2.17;;;;;;;5.45;99.10;100021.28;5073967;28;20194;-75
2023/12/12 03:43:22;;;;;;;4.97;2.47;;;;;;;5.40;98.40;100018.25;5073940;28;20253;-74
2023/12/12 03:45:50;;;;;;;7.67;2.53;;;;;;;5.37;99.09;100023.00;5073946;28;20209;-75
2023/12/12 03:48:20;;;;;;;6.27;2.37;;;;;;;5.35;99.03;100025.81;5073895;28;20201;-75
2023/12/12 03:50:50;;;;;;;8.20;2.63;;;;;;;5.31;98.69;100021.75;5073914;28;20205;-75
2023/12/12 03:53:19;;;;;;;6.27;2.90;;;;;;;5.30;98.87;100030.72;5073788;28;20332;-74
2023/12/12 03:55:47;;;;;;;6.03;2.73;;;;;;;5.29;98.93;100030.84;5073436;28;20669;-75
2023/12/12 03:58:16;;;;;;;8.07;2.67;;;;;;;5.25;98.57;100029.47;5073766;28;20205;-75
2023/12/12 04:00:44;;;;;;;6.30;2.80;;;;;;;5.19;98.58;100036.19;5073539;28;20675;-75
2023/12/12 04:03:13;;;;;;;7.13;2.67;;;;;;;5.16;99.00;100036.47;5073565;28;20255;-75
2023/12/12 04:05:43;;;;;;;7.33;2.70;;;;;;;5.18;98.99;100033.66;5073740;28;20288;-75
2023/12/12 04:08:11;;;;;;;7.67;2.70;;;;;;;5.19;98.97;100046.81;5073269;28;20574;-75
2023/12/12 04:10:40;;;;;;;9.50;2.90;;;;;;;5.18;98.65;100050.44;5073722;28;20288;-75
2023/12/12 04:13:08;;;;;;;6.83;3.07;;;;;;;5.15;99.07;100045.41;5073468;28;20308;-74
2023/12/12 04:15:37;;;;;;;7.57;2.77;;;;;;;5.11;98.39;100047.50;5073207;28;20691;-75
2023/12/12 04:18:06;;;;;;;11.10;3.20;;;;;;;5.10;98.32;100051.13;5073513;28;20267;-75
2023/12/12 04:20:34;;;;;;;5.30;2.70;;;;;;;5.10;98.24;100053.78;5073196;28;20678;-75
2023/12/12 04:23:04;;;;;;;6.43;2.50;;;;;;;5.09;98.66;100053.94;5073466;28;20312;-75
2023/12/12 04:25:33;;;;;;;7.40;3.70;;;;;;;5.08;98.75;100052.25;5073543;28;20193;-75
2023/12/12 04:28:02;;;;;;;12.23;5.23;;;;;;;5.06;98.35;100056.88;5073463;28;20206;-75
2023/12/12 04:30:31;;;;;;;10.00;4.80;;;;;;;5.03;98.38;100057.16;5073426;28;20608;-75
2023/12/12 04:32:59;;;;;;;13.33;4.20;;;;;;;5.00;98.65;100054.81;5072940;28;20233;-75
2023/12/12 04:35:28;;;;;;;6.73;3.57;;;;;;;4.94;98.52;100052.69;5073342;28;20219;-75
2023/12/12 04:37:58;;;;;;;8.63;3.10;;;;;;;4.89;99.04;100055.78;5073326;28;20209;-75
2023/12/12 04:40:29;;;;;;;10.03;3.80;;;;;;;4.84;100.00;100049.22;5073327;28;20245;-74
2023/12/12 04:42:58;;;;;;;7.67;3.63;;;;;;;4.74;100.00;100051.03;5072844;28;20229;-74
2023/12/12 04:45:26;;;;;;;8.10;3.27;;;;;;;4.71;100.00;100046.00;5073335;28;20205;-75
2023/12/12 04:47:55;;;;;;;14.33;4.60;;;;;;;4.73;100.00;100052.00;5073242;28;20300;-75
2023/12/12 04:50:24;;;;;;;8.63;3.80;;;;;;;4.73;100.00;100042.22;5073384;28;20201;-75
2023/12/12 04:52:52;;;;;;;10.17;3.90;;;;;;;4.73;100.00;100049.34;5073358;28;20222;-74
2023/12/12 04:55:21;;;;;;;10.37;3.57;;;;;;;4.75;100.00;100039.47;5073417;28;20215;-74
2023/12/12 04:57:51;;;;;;;9.57;3.40;;;;;;;4.73;99.73;100046.69;5073100;28;20213;-74
2023/12/12 05:00:20;;;;;;;9.00;4.03;;;;;;;4.69;99.96;100050.63;5073488;28;20202;-74
2023/12/12 05:02:48;;;;;;;8.47;4.37;;;;;;;4.68;100.00;100047.13;5073806;28;20279;-74
2023/12/12 05:05:17;;;;;;;7.93;3.70;;;;;;;4.68;100.00;100041.00;5073370;28;20271;-74
2023/12/12 05:07:45;;;;;;;10.17;4.47;;;;;;;4.69;100.00;100047.97;5073155;28;20212;-74
2023/12/12 05:10:14;;;;;;;10.47;3.73;;;;;;;4.68;98.79;100051.59;5072846;28;20221;-74
2023/12/12 05:12:43;;;;;;;11.60;4.10;;;;;;;4.71;98.29;100040.72;5073099;28;20597;-74
2023/12/12 05:15:13;;;;;;;12.53;4.20;;;;;;;4.72;97.44;100042.38;5073157;28;20632;-74
2023/12/12 05:17:42;;;;;;;16.40;5.17;;;;;;;4.68;98.62;100054.25;5073079;28;20273;-74
2023/12/12 05:20:13;;;;;;;20.97;5.53;;;;;;;4.61;98.86;100056.63;5073428;28;20201;-74
2023/12/12 05:22:42;;;;;;;21.30;6.07;;;;;;;4.61;99.36;100056.63;5072727;28;20229;-75
2023/12/12 05:28:18;;;;;;;17.50;5.20;;;;;;;4.56;99.72;100054.38;5072535;28;20670;-74
2023/12/12 05:30:48;;;;;;;17.57;5.43;;;;;;;4.55;99.88;100055.34;5071458;28;20208;-75
2023/12/12 05:33:17;;;;;;;18.23;5.40;;;;;;;4.52;99.52;100063.56;5071843;28;20336;-74
2023/12/12 05:35:48;;;;;;;16.47;5.50;;;;;;;4.52;99.16;100060.94;5073287;28;20214;-74
2023/12/12 05:38:16;;;;;;;14.60;5.40;;;;;;;4.54;99.01;100060.81;5076493;28;20201;-74
2023/12/12 05:40:45;;;;;;;16.13;5.13;;;;;;;4.54;97.89;100061.63;5076364;28;20233;-74
2023/12/12 05:43:13;;;;;;;13.07;4.60;;;;;;;4.54;97.82;100066.94;5076649;28;20225;-75
2023/12/12 05:45:42;;;;;;;10.90;5.27;;;;;;;4.48;97.52;100062.19;5076627;28;20213;-75
2023/12/12 05:48:12;;;;;;;14.63;5.13;;;;;;;4.46;97.52;100064.13;5076506;28;20209;-74
2023/12/12 05:50:40;;;;;;;11.03;4.93;;;;;;;4.46;96.87;100068.59;5076488;28;20671;-74
2023/12/12 05:53:09;;;;;;;12.73;5.27;;;;;;;4.45;96.07;100067.75;5076266;28;20226;-74
2023/12/12 05:55:37;;;;;;;15.93;5.33;;;;;;;4.40;95.50;100062.03;5076005;28;20679;-74
2023/12/12 05:58:06;;;;;;;7.73;4.53;;;;;;;4.44;95.37;100067.91;5075932;28;20667;-74
2023/12/12 06:00:35;;;;;;;6.63;4.47;;;;;;;4.44;94.91;100066.09;5076219;28;20206;-75
2023/12/12 06:03:03;;;;;;;13.27;5.90;;;;;;;4.34;93.52;100065.25;5075933;28;20241;-74
2023/12/12 06:05:33;;;;;;;9.90;5.17;;;;;;;4.34;94.01;100075.84;5075901;28;20237;-74
2023/12/12 06:08:02;;;;;;;9.57;4.70;;;;;;;4.39;94.26;100068.31;5075783;28;20224;-74
2023/12/12 06:10:30;;;;;;;8.13;4.50;;;;;;;4.35;93.43;100068.75;5075833;28;20210;-74
2023/12/12 06:12:59;;;;;;;10.80;5.03;;;;;;;4.27;92.97;100073.88;5075435;28;20307;-74
2023/12/12 06:15:28;;;;;;;12.13;5.83;;;;;;;4.28;93.55;100075.56;5075870;28;20206;-74
2023/12/12 06:17:57;;;;;;;6.83;4.67;;;;;;;4.24;93.57;100071.50;5075712;28;20205;-74
2023/12/12 06:20:26;;;;;;;12.00;5.20;;;;;;;4.21;92.65;100077.91;5075630;28;20205;-74
2023/12/12 06:22:56;;;;;;;9.27;4.80;;;;;;;4.21;93.11;100080.56;5075405;28;20316;-74
2023/12/12 06:25:24;;;;;;;10.30;5.10;;;;;;;4.20;92.82;100078.88;5075786;28;20303;-75
2023/12/12 06:27:53;;;;;;;10.43;5.10;;;;;;;4.21;92.59;100069.97;5076556;28;20213;-74
2023/12/12 06:30:22;;;;;;;11.00;5.17;;;;;;;4.15;91.22;100070.50;5075866;28;20245;-75
2023/12/12 06:32:50;;;;;;;8.10;4.90;;;;;;;4.18;92.83;100074.69;5075624;28;20237;-74
2023/12/12 06:35:19;;;;;;;9.53;5.63;;;;;;;4.15;93.06;100077.59;5076080;28;20205;-75
2023/12/12 06:37:48;;;;;;;8.67;4.90;;;;;;;4.10;93.39;100067.44;5075663;28;20216;-74
2023/12/12 06:40:18;;;;;;;9.10;5.67;;;;;;;4.08;92.94;100070.19;5075097;28;20210;-74
2023/12/12 06:42:47;;;;;;;11.53;6.13;;;;;;;4.11;93.72;100063.78;5075533;28;20229;-74
2023/12/12 06:45:15;;;;;;;10.17;5.60;;;;;;;4.15;94.12;100064.34;5075305;28;20205;-74
2023/12/12 06:47:44;;;;;;;9.87;5.93;;;;;;;4.10;94.61;100070.06;5074217;28;20243;-74
2023/12/12 06:50:13;;;;;;;12.33;5.77;;;;;;;4.07;94.73;100062.41;5075399;28;20214;-74
2023/12/12 06:52:42;;;;;;;8.70;6.03;;;;;;;4.01;94.95;100068.22;5075438;28;20221;-75
2023/12/12 06:55:10;;;;;;;13.20;6.60;;;;;;;3.97;94.96;100077.44;5075379;28;20209;-75
2023/12/12 06:57:40;;;;;;;10.53;7.10;;;;;;;3.98;96.21;100065.84;5075116;28;20279;-74
2023/12/12 07:00:09;;;;;;;16.30;8.10;;;;;;;3.95;96.75;100068.75;5075370;28;20608;-75
2023/12/12 07:02:38;;;;;;;79.93;56.17;;;;;;;3.96;97.47;100065.16;5076563;28;20226;-75
2023/12/12 07:05:07;;;;;;;20.17;12.70;;;;;;;3.95;97.58;100076.69;5077222;28;20229;-75
2023/12/12 07:07:36;;;;;;;18.07;10.10;;;;;;;3.96;98.23;100075.75;5077747;28;20674;-74
2023/12/12 07:10:06;;;;;;;10.67;7.47;;;;;;;3.96;98.03;100067.78;5077319;28;20205;-74
2023/12/12 07:12:35;;;;;;;16.00;8.10;;;;;;;3.99;98.35;100067.53;5077192;28;20595;-74
2023/12/12 07:15:07;;;;;;;14.27;9.03;;;;;;;4.02;98.82;100067.25;5075836;28;20728;-74
2023/12/12 07:17:35;;;;;;;15.10;8.53;;;;;;;4.01;99.49;100062.91;5076181;28;20217;-74
2023/12/12 07:20:05;;;;;;;13.30;7.63;;;;;;;4.00;99.53;100066.56;5076863;28;20205;-74
2023/12/12 07:22:34;;;;;;;13.37;8.50;;;;;;;3.97;100.00;100069.47;5076566;28;20230;-74
2023/12/12 07:25:04;;;;;;;14.23;8.47;;;;;;;3.99;100.00;100071.00;5076392;28;20265;-74
2023/12/12 07:27:32;;;;;;;14.23;7.53;;;;;;;3.96;100.00;100076.59;5076907;28;20207;-74
2023/12/12 07:30:02;;;;;;;14.10;7.73;;;;;;;3.98;100.00;100073.78;5074337;28;20209;-65
2023/12/12 07:32:32;;;;;;;15.43;8.70;;;;;;;3.97;100.00;100069.47;5074668;28;20624;-72
2023/12/12 07:35:00;;;;;;;13.87;8.00;;;;;;;3.95;100.00;100074.06;5076180;28;20235;-72
2023/12/12 07:37:29;;;;;;;13.23;8.00;;;;;;;3.95;100.00;100074.06;5076392;28;20319;-73
2023/12/12 07:39:58;;;;;;;13.53;8.30;;;;;;;3.94;100.00;100082.97;5076462;28;20216;-72
2023/12/12 07:42:28;;;;;;;13.47;7.60;;;;;;;3.94;100.00;100072.38;5076198;28;20312;-72
2023/12/12 07:44:59;;;;;;;11.57;7.17;;;;;;;3.95;100.00;100079.34;5076259;28;20221;-72
2023/12/12 07:47:27;;;;;;;13.20;7.67;;;;;;;3.97;100.00;100082.72;5076327;28;20241;-72
2023/12/12 07:50:10;;;;;;;14.07;8.03;;;;;;;3.94;100.00;100078.50;5075847;28;20193;-72
2023/12/12 07:52:38;;;;;;;15.30;8.47;;;;;;;3.95;100.00;100085.50;5075827;28;20239;-72
2023/12/12 07:55:07;;;;;;;17.93;8.10;;;;;;;3.98;100.00;100081.72;5075465;28;20683;-72
2023/12/12 07:57:36;;;;;;;11.73;7.77;;;;;;;3.99;100.00;100086.06;5074929;28;20209;-72
2023/12/12 08:00:06;;;;;;;17.07;8.60;;;;;;;4.03;100.00;100076.88;5074883;28;20216;-72
2023/12/12 08:02:35;;;;;;;16.70;9.67;;;;;;;4.11;100.00;100073.56;5075143;28;20670;-73
2023/12/12 08:05:04;;;;;;;17.27;9.20;;;;;;;4.16;100.00;100080.13;5074348;28;20578;-72
2023/12/12 08:07:34;;;;;;;21.37;10.73;;;;;;;4.19;100.00;100079.84;5074589;28;20574;-72
2023/12/12 08:10:03;;;;;;;19.07;10.03;;;;;;;4.27;100.00;100076.53;5074269;28;20221;-72
2023/12/12 08:12:31;;;;;;;19.83;10.33;;;;;;;4.30;100.00;100077.09;5074609;28;20236;-72
2023/12/12 08:15:00;;;;;;;18.87;10.03;;;;;;;4.36;100.00;100073.88;5074547;28;20240;-72
2023/12/12 08:17:28;;;;;;;16.27;9.50;;;;;;;4.37;100.00;100067.63;5074221;28;20211;-72
2023/12/12 08:19:58;;;;;;;15.97;9.10;;;;;;;4.45;100.00;100073.06;5074150;28;20205;-72
2023/12/12 08:22:26;;;;;;;17.97;9.43;;;;;;;4.50;100.00;100076.16;5074368;28;20279;-72
2023/12/12 08:24:56;;;;;;;18.83;10.30;;;;;;;4.55;100.00;100073.91;5074414;28;20229;-72
2023/12/12 08:27:25;;;;;;;20.93;10.97;;;;;;;4.59;100.00;100075.31;5074589;28;20205;-72
2023/12/12 08:29:54;;;;;;;21.27;10.27;;;;;;;4.58;100.00;100073.66;5074366;28;20259;-72
2023/12/12 08:32:23;;;;;;;16.53;10.17;;;;;;;4.64;100.00;100079.34;5073292;28;20264;-72
2023/12/12 08:34:51;;;;;;;19.30;11.30;;;;;;;4.69;100.00;100071.84;5073505;28;20286;-72
2023/12/12 08:37:20;;;;;;;20.27;11.33;;;;;;;4.75;100.00;100087.19;5073453;28;20213;-72
2023/12/12 08:39:48;;;;;;;18.47;10.33;;;;;;;4.78;100.00;100085.09;5073123;28;20585;-74
2023/12/12 08:42:19;;;;;;;14.80;9.63;;;;;;;4.76;100.00;100080.91;5073295;28;20566;-73
2023/12/12 08:44:47;;;;;;;20.07;10.90;;;;;;;4.73;100.00;100092.63;5073320;28;20331;-73
2023/12/12 08:47:16;;;;;;;16.50;10.30;;;;;;;4.76;100.00;100087.03;5073381;28;20201;-73
2023/12/12 08:49:44;;;;;;;22.97;15.33;;;;;;;4.75;100.00;100089.84;5073495;28;20663;-73
2023/12/12 08:52:14;;;;;;;17.43;10.60;;;;;;;4.78;100.00;100081.59;5073829;28;20336;-73
2023/12/12 08:54:45;;;;;;;19.30;9.90;;;;;;;4.77;100.00;100082.56;5073324;28;20209;-73
2023/12/12 08:57:17;;;;;;;16.03;9.53;;;;;;;4.78;100.00;100085.09;5073790;28;20190;-73
2023/12/12 08:59:47;;;;;;;19.30;10.43;;;;;;;4.80;100.00;100083.13;5073774;28;20196;-72
2023/12/12 09:02:17;;;;;;;17.67;9.50;;;;;;;4.79;100.00;100080.63;5073660;28;20299;-72
2023/12/12 09:04:45;;;;;;;22.10;13.57;;;;;;;4.79;100.00;100085.94;5073268;28;20311;-73
2023/12/12 09:07:14;;;;;;;15.07;9.57;;;;;;;4.81;100.00;100079.50;5073032;28;20233;-73
2023/12/12 09:09:43;;;;;;;15.40;9.57;;;;;;;4.83;100.00;100082.03;5073038;28;20205;-73
2023/12/12 09:12:11;;;;;;;16.13;10.00;;;;;;;4.86;100.00;100076.44;5076838;28;20312;-73
2023/12/12 09:14:40;;;;;;;17.27;10.73;;;;;;;4.88;100.00;100085.94;5076979;28;20240;-72
2023/12/12 09:17:10;;;;;;;14.13;10.17;;;;;;;4.88;100.00;100087.75;5077365;28;20240;-73
2023/12/12 09:19:38;;;;;;;17.03;9.97;;;;;;;4.90;100.00;100083.97;5078329;28;20287;-72
2023/12/12 09:22:07;;;;;;;16.50;10.30;;;;;;;4.93;100.00;100082.88;5077432;28;20236;-72
2023/12/12 09:24:35;;;;;;;17.33;11.03;;;;;;;4.93;100.00;100081.03;5077050;28;20274;-72
2023/12/12 09:27:05;;;;;;;14.53;9.30;;;;;;;4.94;100.00;100080.06;5076808;28;20201;-73
2023/12/12 09:29:34;;;;;;;16.60;10.43;;;;;;;4.96;100.00;100083.44;5076807;28;20296;-72
2023/12/12 09:32:02;;;;;;;16.47;11.17;;;;;;;5.01;100.00;100077.69;5076839;28;20315;-72
2023/12/12 09:34:32;;;;;;;14.60;11.03;;;;;;;5.01;100.00;100075.88;5077136;28;20280;-72
2023/12/12 09:37:01;;;;;;;16.70;11.13;;;;;;;5.05;100.00;100076.44;5076905;28;20205;-72
2023/12/12 09:39:29;;;;;;;18.50;11.17;;;;;;;5.07;100.00;100070.00;5076625;28;20205;-72
2023/12/12 09:42:00;;;;;;;19.33;11.67;;;;;;;5.11;100.00;100075.84;5076660;28;20225;-72
2023/12/12 09:44:33;;;;;;;20.50;12.40;;;;;;;5.14;100.00;100069.44;5076542;28;20580;-72
2023/12/12 09:47:03;;;;;;;20.00;12.97;;;;;;;5.19;100.00;100073.34;5076502;28;20555;-72
2023/12/12 09:49:33;;;;;;;20.27;13.50;;;;;;;5.20;100.00;100075.03;5076287;28;20209;-73
2023/12/12 09:52:04;;;;;;;19.57;12.30;;;;;;;5.19;100.00;100068.03;5076529;28;20230;-72
2023/12/12 09:54:33;;;;;;;17.53;13.07;;;;;;;5.17;100.00;100070.00;5076584;28;20206;-72
2023/12/12 09:57:01;;;;;;;18.73;12.20;;;;;;;5.16;100.00;100067.47;5076312;28;20293;-72
2023/12/12 09:59:30;;;;;;;25.37;12.90;;;;;;;5.17;100.00;100064.69;5076367;28;20296;-72
2023/12/12 10:02:00;;;;;;;19.97;13.83;;;;;;;5.20;100.00;100064.41;5076168;28;20323;-72
2023/12/12 10:04:43;;;;;;;22.83;14.20;;;;;;;5.21;100.00;100055.44;5075728;28;20578;-72
2023/12/12 10:07:18;;;;;;;20.27;12.97;;;;;;;5.21;100.00;100057.25;5076187;28;20194;-73
2023/12/12 10:09:48;;;;;;;19.30;12.33;;;;;;;5.23;100.00;100045.53;5076286;28;20189;-73
2023/12/12 10:12:16;;;;;;;24.07;13.70;;;;;;;5.25;100.00;100040.06;5075742;28;20271;-73
2023/12/12 10:14:47;;;;;;;18.77;12.97;;;;;;;5.27;100.00;100032.81;5076086;28;20205;-72
2023/12/12 10:17:16;;;;;;;16.87;12.57;;;;;;;5.31;100.00;100037.69;5075910;28;20212;-72
2023/12/12 10:20:00;;;;;;;21.87;13.00;;;;;;;5.32;100.00;100031.41;5075912;28;20209;-72
2023/12/12 10:22:31;;;;;;;19.33;12.63;;;;;;;5.33;100.00;100022.47;5076014;28;20641;-72
2023/12/12 10:25:11;;;;;;;20.13;13.83;;;;;;;5.36;100.00;100022.19;5076123;28;20214;-73
2023/12/12 10:27:42;;;;;;;20.13;13.70;;;;;;;5.38;100.00;100022.84;5075860;28;20251;-73
2023/12/12 10:30:13;;;;;;;28.30;16.97;;;;;;;5.41;100.00;100019.91;5075736;28;20232;-72
2023/12/12 10:32:43;;;;;;;22.83;14.37;;;;;;;5.45;100.00;100015.97;5075250;28;20239;-72
2023/12/12 10:35:13;;;;;;;20.57;14.43;;;;;;;5.45;100.00;100010.69;5075640;28;20224;-72
2023/12/12 10:37:42;;;;;;;25.97;17.37;;;;;;;5.46;100.00;100016.81;5075879;28;20190;-73
2023/12/12 10:40:14;;;;;;;23.50;15.87;;;;;;;5.49;100.00;100003.25;5075730;28;20667;-73
2023/12/12 10:42:43;;;;;;;21.87;15.00;;;;;;;5.48;100.00;99999.75;5076043;28;20265;-73
2023/12/12 10:45:13;;;;;;;17.07;12.80;;;;;;;5.52;100.00;99998.50;5075628;28;20239;-73
2023/12/12 10:47:45;;;;;;;24.77;13.63;;;;;;;5.56;100.00;99994.56;5075806;28;20205;-72
2023/12/12 10:50:17;;;;;;;19.00;13.63;;;;;;;5.58;100.00;99994.44;5075762;28;20193;-72
2023/12/12 10:52:47;;;;;;;19.13;13.00;;;;;;;5.60;100.00;99988.00;5075470;28;20257;-72
2023/12/12 10:55:16;;;;;;;20.73;13.73;;;;;;;5.65;100.00;99984.06;5075301;28;20663;-72
2023/12/12 10:57:47;;;;;;;19.40;13.73;;;;;;;5.67;100.00;99980.28;5075624;28;20194;-72
2023/12/12 11:00:20;;;;;;;23.93;15.23;;;;;;;5.70;100.00;99977.31;5075157;28;20643;-72
2023/12/12 11:02:49;;;;;;;25.33;15.23;;;;;;;5.73;100.00;99970.88;5074803;28;20725;-73
2023/12/12 11:05:19;;;;;;;21.50;14.20;;;;;;;5.75;100.00;99969.75;5075871;28;20251;-73
2023/12/12 11:07:52;;;;;;;20.23;13.73;;;;;;;5.80;100.00;99956.00;5076409;28;20190;-73
2023/12/12 11:10:22;;;;;;;24.50;15.23;;;;;;;5.82;100.00;99959.38;5076600;28;20259;-73
2023/12/12 11:12:54;;;;;;;22.83;15.30;;;;;;;5.84;100.00;99960.88;5076134;28;20304;-72
2023/12/12 11:15:25;;;;;;;22.70;16.43;;;;;;;5.85;100.00;99951.09;5075421;28;20182;-72
2023/12/12 11:17:54;;;;;;;20.30;14.57;;;;;;;5.88;100.00;99950.81;5075124;28;20190;-73
2023/12/12 11:20:24;;;;;;;22.70;14.83;;;;;;;5.91;100.00;99942.56;5075056;28;20278;-73
2023/12/12 11:22:53;;;;;;;25.00;14.20;;;;;;;5.93;100.00;99945.88;5074665;28;20229;-72
2023/12/12 11:25:29;;;;;;;71.93;53.37;;;;;;;5.95;100.00;99946.59;5074832;28;20212;-63
2023/12/12 11:27:59;;;;;;;27.33;19.00;;;;;;;5.96;100.00;99935.78;5074387;28;20189;-75
2023/12/12 11:30:32;;;;;;;29.27;16.97;;;;;;;6.00;100.00;99933.66;5074532;28;20214;-75
2023/12/12 11:33:00;;;;;;;22.73;15.13;;;;;;;6.01;100.00;99933.53;5073545;28;20237;-75
2023/12/12 11:35:31;;;;;;;24.80;15.93;;;;;;;6.05;100.00;99926.94;5074179;28;20197;-75